Aérodrome :
LOGIN :

S'inscrire | Disclaimer

   EN    FR    IT 

 










Légende :    VFR   VFR Marginal   IFR   IFR Intensif   IFR Très Intensif
Visi : 
Plafond : 
>= 8 km
>= 3000ft
5 à 8 km
1000 à 3000 ft
1500m à 5 km
500 à 1000 ft
800 à 1500m
200 à 500 ft
< 800m
< 200 ft
Symboles :   Orages  Brouillard  Fortes neiges  Fortes précipitations  Vent > 20 kt
SIGMETs :   Divers  Orages  Givrage  Turbulence  Onde Orograph.  Cendres Volcan.







- Altitude de l'aérodrome : 20 ft


EBFN - Koksijde

DERNIER METAR :
  • 301203Z 21013KT 9999 FEW100 BKN240 21/10 Q1022 BLU BLU

METARs EXPIRÉS :
  • 301155Z 21012KT 9999 FEW100 BKN240 21/09 Q1022 BLU BLU
  • 301125Z 20015KT 9999 FEW100 SCT200 21/08 Q1022 BLU BLU
  • 301055Z 20012KT 9999 FEW100 SCT200 20/09 Q1022 BLU BLU
  • 301025Z 20011KT 9999 FEW100 SCT200 20/10 Q1023 BLU BLU
  • 300955Z 19009KT 9999 FEW100 SCT200 19/10 Q1023 BLU BLU
  • 300925Z 20009KT 9999 FEW100 SCT200 18/10 Q1023 BLU BLU

TAF TAF EBFN
Valide du 30 à 10h jusqu'au 30 à 19h UTC


300841Z 3010/3019 19011KT 9999 FEW090 SCT270
TEMPO 3010/3019 FEW025 SCT270
Pas de NOTAMs connus pour ce terrain.



MET'MAP, la Météo Aéronautique d'un coup d'oeil ! - Copyright ORBIFLY Décembre 2007 - Disclaimer

ORBIFLY MET'MAP TEAM :

Programmation & Développement : Alexandra Zaïnal
Conception & Développement : Baudouin d'Aumeries
Co-Programmation & Développement : Marc-Olivier Méhu
Soutien technique & logistique : Manuel Goepfert

Contact : metmap@orbifly.com




SOURCES & CREDITS :

   NOAA